createdAt,value
2018-05-23T00:00:41.489Z,14.55
2018-05-23T00:03:09.019Z,14.51
2018-05-23T00:05:37.500Z,14.48
2018-05-23T00:08:05.678Z,14.42
2018-05-23T00:10:33.249Z,14.36
2018-05-23T00:13:01.336Z,14.32
2018-05-23T00:15:29.856Z,14.27
2018-05-23T00:17:57.973Z,14.26
2018-05-23T00:20:25.557Z,14.23
2018-05-23T00:22:53.491Z,14.19
2018-05-23T00:25:21.521Z,14.15
2018-05-23T00:27:49.060Z,14.13
2018-05-23T00:30:16.949Z,14.08
2018-05-23T00:32:44.923Z,14.03
2018-05-23T00:35:12.482Z,13.97
2018-05-23T00:37:40.023Z,13.91
2018-05-23T00:40:07.601Z,13.86
2018-05-23T00:42:35.154Z,13.82
2018-05-23T00:45:03.330Z,13.77
2018-05-23T00:47:30.942Z,13.72
2018-05-23T00:49:59.146Z,13.68
2018-05-23T00:52:26.682Z,13.64
2018-05-23T00:55:06.039Z,13.58
2018-05-23T00:57:33.581Z,13.52
2018-05-23T01:00:01.146Z,13.47
2018-05-23T01:02:29.076Z,13.36
2018-05-23T01:04:57.691Z,13.26
2018-05-23T01:07:26.086Z,13.17
2018-05-23T01:09:53.863Z,13.10
2018-05-23T01:12:22.195Z,13.05
2018-05-23T01:14:50.203Z,12.99
2018-05-23T01:17:17.767Z,12.93
2018-05-23T01:19:46.266Z,12.91
2018-05-23T01:22:14.487Z,12.88
2018-05-23T01:24:43.724Z,12.85
2018-05-23T01:27:12.279Z,12.82
2018-05-23T01:29:39.839Z,12.76
2018-05-23T01:32:08.054Z,12.73
2018-05-23T01:34:35.590Z,12.69
2018-05-23T01:37:03.813Z,12.65
2018-05-23T01:39:31.357Z,12.62
2018-05-23T01:41:59.041Z,12.58
2018-05-23T01:44:27.110Z,12.54
2018-05-23T01:46:54.907Z,12.49
2018-05-23T01:49:27.275Z,12.45
2018-05-23T01:51:56.277Z,12.42
2018-05-23T01:54:23.848Z,12.39
2018-05-23T01:56:51.485Z,12.33
2018-05-23T01:59:19.063Z,12.29
2018-05-23T02:01:47.122Z,12.26
2018-05-23T02:04:14.670Z,12.23
2018-05-23T02:06:42.705Z,12.21
2018-05-23T02:09:10.877Z,12.15
2018-05-23T02:11:38.423Z,12.08
2018-05-23T02:14:06.517Z,12.04
2018-05-23T02:16:34.640Z,12.03
2018-05-23T02:19:02.199Z,12.00
2018-05-23T02:21:30.028Z,11.96
2018-05-23T02:23:58.331Z,11.95
2018-05-23T02:26:26.517Z,11.96
2018-05-23T02:28:54.071Z,11.91
2018-05-23T02:31:22.259Z,11.91
2018-05-23T02:33:49.852Z,11.90
2018-05-23T02:36:17.461Z,11.90
2018-05-23T02:38:45.044Z,11.91
2018-05-23T02:41:13.224Z,11.93
2018-05-23T02:43:40.803Z,11.94
2018-05-23T02:46:08.353Z,11.96
2018-05-23T02:48:35.928Z,12.17
2018-05-23T02:51:03.485Z,12.49
2018-05-23T02:53:31.069Z,12.86
2018-05-23T02:55:59.448Z,13.26
2018-05-23T02:58:27.748Z,13.65
2018-05-23T03:00:55.360Z,14.05
2018-05-23T03:03:22.891Z,14.46
2018-05-23T03:05:50.931Z,14.88
2018-05-23T03:08:19.170Z,15.27
2018-05-23T03:10:46.726Z,15.65
2018-05-23T03:13:14.935Z,15.83
2018-05-23T03:15:43.355Z,16.10
2018-05-23T03:18:10.963Z,16.54
2018-05-23T03:20:38.506Z,16.91
2018-05-23T03:23:06.761Z,17.18
2018-05-23T03:25:34.719Z,17.39
2018-05-23T03:28:03.057Z,17.79
2018-05-23T03:30:31.103Z,18.19
2018-05-23T03:32:58.898Z,18.56
2018-05-23T03:35:26.456Z,18.73
2018-05-23T03:37:55.020Z,19.05
2018-05-23T03:40:22.554Z,19.47
2018-05-23T03:42:50.128Z,19.77
2018-05-23T03:45:18.616Z,19.98
2018-05-23T03:47:46.157Z,20.35
2018-05-23T03:50:13.719Z,20.69
2018-05-23T03:52:41.283Z,20.93
2018-05-23T03:55:08.839Z,21.21
2018-05-23T03:57:37.025Z,21.42
2018-05-23T04:00:17.412Z,21.50
2018-05-23T04:02:56.808Z,21.35
2018-05-23T04:05:37.174Z,20.98
2018-05-23T04:08:05.403Z,20.57
2018-05-23T04:10:32.963Z,20.26
2018-05-23T04:13:01.702Z,19.84
2018-05-23T04:15:29.940Z,19.38
2018-05-23T04:17:57.479Z,19.04
2018-05-23T04:20:25.033Z,18.74
2018-05-23T04:22:53.983Z,18.50
2018-05-23T04:25:21.936Z,18.27
2018-05-23T04:27:49.518Z,18.00
2018-05-23T04:30:17.670Z,17.73
2018-05-23T04:32:45.221Z,17.61
2018-05-23T04:35:12.755Z,17.51
2018-05-23T04:37:40.816Z,17.46
2018-05-23T04:40:08.372Z,17.45
2018-05-23T04:42:35.937Z,17.44
2018-05-23T04:45:03.571Z,17.44
2018-05-23T04:47:33.295Z,17.37
2018-05-23T04:50:00.978Z,17.41
2018-05-23T04:52:28.519Z,17.35
2018-05-23T04:54:56.100Z,17.37
2018-05-23T04:57:24.431Z,17.37
2018-05-23T04:59:52.060Z,17.38
2018-05-23T05:02:20.138Z,17.41
2018-05-23T05:04:48.365Z,17.54
2018-05-23T05:07:16.923Z,17.58
2018-05-23T05:09:44.474Z,17.65
2018-05-23T05:12:12.243Z,17.71
2018-05-23T05:14:40.335Z,17.77
2018-05-23T05:17:07.876Z,17.87
2018-05-23T05:19:36.351Z,17.96
2018-05-23T05:22:03.856Z,18.02
2018-05-23T05:24:32.379Z,18.13
2018-05-23T05:27:01.333Z,18.16
2018-05-23T05:29:28.858Z,18.15
2018-05-23T05:31:56.840Z,18.22
2018-05-23T05:34:25.058Z,18.29
2018-05-23T05:36:52.634Z,18.37
2018-05-23T05:39:20.178Z,18.43
2018-05-23T05:41:47.767Z,18.49
2018-05-23T05:44:15.303Z,18.53
2018-05-23T05:46:42.856Z,18.65
2018-05-23T05:49:10.691Z,18.67
2018-05-23T05:51:38.976Z,18.76
2018-05-23T05:54:06.536Z,18.89
2018-05-23T05:56:34.965Z,18.93
2018-05-23T05:59:02.752Z,18.94
2018-05-23T06:01:30.356Z,18.98
2018-05-23T06:03:57.968Z,19.02
2018-05-23T06:06:26.296Z,19.05
2018-05-23T06:08:54.327Z,19.22
2018-05-23T06:11:21.874Z,19.28
2018-05-23T06:13:50.195Z,19.41
2018-05-23T06:16:18.291Z,19.55
2018-05-23T06:18:45.844Z,19.69
2018-05-23T06:21:13.377Z,19.79
2018-05-23T06:23:41.526Z,19.91
2018-05-23T06:26:09.628Z,19.97
2018-05-23T06:28:37.166Z,20.09
2018-05-23T06:31:05.339Z,20.19
2018-05-23T06:33:33.311Z,20.28
2018-05-23T06:36:00.885Z,20.34
2018-05-23T06:38:29.292Z,20.41
2018-05-23T06:40:56.842Z,20.54
2018-05-23T06:43:25.132Z,20.61
2018-05-23T06:45:52.628Z,20.75
2018-05-23T06:48:20.164Z,20.87
2018-05-23T06:50:47.758Z,20.94
2018-05-23T06:53:15.386Z,21.00
2018-05-23T06:55:43.747Z,21.13
2018-05-23T06:58:12.213Z,21.25
2018-05-23T07:00:39.795Z,21.39
2018-05-23T07:03:07.333Z,21.53
2018-05-23T07:05:35.981Z,21.67
2018-05-23T07:08:04.306Z,21.80
2018-05-23T07:10:32.631Z,21.89
2018-05-23T07:13:01.507Z,21.99
2018-05-23T07:15:29.660Z,22.01
2018-05-23T07:17:57.218Z,22.06
2018-05-23T07:20:24.801Z,22.10
2018-05-23T07:22:53.041Z,22.15
2018-05-23T07:25:21.141Z,22.25
2018-05-23T07:27:49.451Z,22.30
2018-05-23T07:30:17.578Z,22.32
2018-05-23T07:32:45.123Z,22.42
2018-05-23T07:35:12.653Z,22.47
2018-05-23T07:37:40.220Z,22.55
2018-05-23T07:40:07.791Z,22.71
2018-05-23T07:42:36.370Z,22.75
2018-05-23T07:45:03.946Z,22.80
2018-05-23T07:47:31.895Z,22.88
2018-05-23T07:49:59.460Z,22.97
2018-05-23T07:52:26.995Z,23.06
2018-05-23T07:54:54.567Z,23.18
2018-05-23T07:57:22.959Z,23.16
2018-05-23T07:59:51.067Z,23.15
2018-05-23T08:02:18.608Z,23.13
2018-05-23T08:05:04.972Z,23.13
2018-05-23T08:07:33.399Z,23.21
2018-05-23T08:10:01.004Z,23.29
2018-05-23T08:12:29.095Z,23.40
2018-05-23T08:14:57.396Z,23.46
2018-05-23T08:17:24.952Z,23.51
2018-05-23T08:19:52.489Z,23.54
2018-05-23T08:22:20.069Z,23.58
2018-05-23T08:24:48.295Z,23.70
2018-05-23T08:27:16.471Z,23.87
2018-05-23T08:29:44.902Z,23.96
2018-05-23T08:32:12.882Z,24.02
2018-05-23T08:34:40.408Z,24.08
2018-05-23T08:37:07.951Z,24.23
2018-05-23T08:39:35.540Z,24.35
2018-05-23T08:42:03.101Z,24.49
2018-05-23T08:44:30.856Z,24.63
2018-05-23T08:46:59.090Z,24.70
2018-05-23T08:49:28.327Z,24.77
2018-05-23T08:51:57.842Z,24.82
2018-05-23T08:54:25.429Z,24.83
2018-05-23T08:56:53.496Z,24.88
2018-05-23T08:59:21.054Z,24.93
2018-05-23T09:01:49.447Z,24.87
2018-05-23T09:06:51.620Z,24.73
2018-05-23T09:09:19.163Z,24.66
2018-05-23T09:11:46.700Z,24.69
2018-05-23T09:14:15.746Z,24.74
2018-05-23T09:16:43.854Z,24.73
2018-05-23T09:19:12.064Z,24.77
2018-05-23T09:21:39.602Z,24.81
2018-05-23T09:24:08.064Z,24.87
2018-05-23T09:26:36.215Z,24.92
2018-05-23T09:29:04.701Z,24.93
2018-05-23T09:31:33.143Z,24.98
2018-05-23T09:34:01.207Z,24.96
2018-05-23T09:36:28.747Z,25.00
2018-05-23T09:38:56.294Z,25.10
2018-05-23T09:41:23.872Z,25.17
2018-05-23T09:43:51.409Z,25.21
2018-05-23T09:46:18.980Z,25.24
2018-05-23T09:48:46.568Z,25.30
2018-05-23T09:51:14.607Z,25.35
2018-05-23T09:53:42.135Z,25.41
2018-05-23T09:56:10.212Z,25.48
2018-05-23T09:58:37.756Z,25.46
2018-05-23T10:01:06.528Z,25.47
2018-05-23T10:03:35.170Z,25.54
2018-05-23T10:06:03.200Z,25.54
2018-05-23T10:08:32.277Z,25.55
2018-05-23T10:10:59.830Z,25.53
2018-05-23T10:13:28.029Z,25.53
2018-05-23T10:15:56.157Z,25.54
2018-05-23T10:18:23.702Z,25.52
2018-05-23T10:20:51.240Z,25.53
2018-05-23T10:23:19.563Z,25.59
2018-05-23T10:25:47.722Z,25.68
2018-05-23T10:28:15.250Z,25.77
2018-05-23T10:30:43.540Z,25.79
2018-05-23T10:33:11.077Z,25.76
2018-05-23T10:35:38.606Z,25.79
2018-05-23T10:38:07.416Z,25.85
2018-05-23T10:40:34.945Z,25.98
2018-05-23T10:43:02.799Z,25.94
2018-05-23T10:45:30.382Z,25.94
2018-05-23T10:47:58.005Z,25.97
2018-05-23T10:50:25.544Z,26.02
2018-05-23T10:52:53.130Z,26.11
2018-05-23T10:55:21.202Z,26.20
2018-05-23T10:57:49.237Z,26.32
2018-05-23T11:00:16.784Z,26.35
2018-05-23T11:02:44.322Z,26.29
2018-05-23T11:05:12.761Z,26.30
2018-05-23T11:07:41.341Z,26.40
2018-05-23T11:10:09.335Z,26.46
2018-05-23T11:12:37.676Z,26.49
2018-05-23T11:15:05.635Z,26.48
2018-05-23T11:17:33.342Z,26.50
2018-05-23T11:20:02.075Z,26.57
2018-05-23T11:22:29.610Z,26.49
2018-05-23T11:24:58.343Z,26.46
2018-05-23T11:27:25.902Z,26.49
2018-05-23T11:29:53.446Z,26.57
2018-05-23T11:32:21.774Z,26.58
2018-05-23T11:34:49.304Z,26.59
2018-05-23T11:37:16.854Z,26.69
2018-05-23T11:39:44.425Z,26.84
2018-05-23T11:42:12.523Z,26.98
2018-05-23T11:44:40.077Z,27.10
2018-05-23T11:47:07.610Z,27.09
2018-05-23T11:49:35.292Z,26.98
2018-05-23T11:52:03.420Z,26.88
2018-05-23T11:54:31.335Z,26.88
2018-05-23T11:56:59.592Z,26.92
2018-05-23T11:59:27.151Z,26.93
2018-05-23T12:01:54.734Z,27.03
2018-05-23T12:04:23.414Z,26.98
2018-05-23T12:06:51.490Z,26.97
2018-05-23T12:09:19.030Z,27.01
2018-05-23T12:11:46.570Z,27.01
2018-05-23T12:14:14.878Z,27.02
2018-05-23T12:16:43.082Z,27.05
2018-05-23T12:19:10.620Z,27.08
2018-05-23T12:21:38.175Z,27.11
2018-05-23T12:24:06.499Z,27.25
2018-05-23T12:26:34.818Z,27.40
2018-05-23T12:29:03.045Z,27.48
2018-05-23T12:31:31.308Z,27.50
2018-05-23T12:33:58.858Z,27.48
2018-05-23T12:36:26.411Z,27.41
2018-05-23T12:38:53.981Z,27.47
2018-05-23T12:41:21.558Z,27.55
2018-05-23T12:43:49.121Z,27.52
2018-05-23T12:46:17.239Z,27.51
2018-05-23T12:48:44.776Z,27.45
2018-05-23T12:51:12.326Z,27.50
2018-05-23T12:53:39.904Z,27.51
2018-05-23T12:56:08.346Z,27.56
2018-05-23T12:58:35.891Z,27.68
2018-05-23T13:01:04.370Z,27.81
2018-05-23T13:03:31.999Z,28.01
2018-05-23T13:06:00.400Z,28.14
2018-05-23T13:08:28.542Z,28.23
2018-05-23T13:10:56.088Z,28.26
2018-05-23T13:13:24.461Z,28.21
2018-05-23T13:15:52.758Z,28.09
2018-05-23T13:18:21.013Z,27.94
2018-05-23T13:20:48.577Z,27.83
2018-05-23T13:23:17.128Z,27.94
2018-05-23T13:25:45.233Z,27.96
2018-05-23T13:28:12.778Z,28.02
2018-05-23T13:30:41.927Z,28.10
2018-05-23T13:33:10.049Z,28.17
2018-05-23T13:35:37.586Z,28.29
2018-05-23T13:38:05.162Z,28.38
2018-05-23T13:40:32.902Z,28.52
2018-05-23T13:43:00.758Z,28.47
2018-05-23T13:45:28.347Z,28.46
2018-05-23T13:47:55.922Z,28.43
2018-05-23T13:50:24.274Z,28.29
2018-05-23T13:52:51.864Z,28.05
2018-05-23T13:55:19.444Z,27.80
2018-05-23T13:57:47.926Z,27.59
2018-05-23T14:00:16.289Z,27.40
2018-05-23T14:02:43.859Z,27.44
2018-05-23T14:05:11.926Z,27.46
2018-05-23T14:07:40.217Z,27.53
2018-05-23T14:10:07.750Z,27.58
2018-05-23T14:12:35.767Z,27.57
2018-05-23T14:15:04.658Z,27.69
2018-05-23T14:17:32.423Z,27.65
2018-05-23T14:20:00.636Z,27.65
2018-05-23T14:22:28.176Z,27.58
2018-05-23T14:24:56.332Z,27.52
2018-05-23T14:27:23.882Z,27.58
2018-05-23T14:29:51.454Z,27.68
2018-05-23T14:32:19.777Z,27.79
2018-05-23T14:34:47.342Z,27.74
2018-05-23T14:37:16.352Z,27.71
2018-05-23T14:39:43.941Z,27.70
2018-05-23T14:42:11.494Z,27.64
2018-05-23T14:44:40.031Z,27.54
2018-05-23T14:47:07.589Z,27.52
2018-05-23T14:49:35.122Z,27.46
2018-05-23T14:52:03.425Z,27.40
2018-05-23T14:54:30.971Z,27.36
2018-05-23T14:56:58.992Z,27.29
2018-05-23T14:59:26.535Z,27.24
2018-05-23T15:01:54.099Z,27.20
2018-05-23T15:04:21.677Z,27.14
2018-05-23T15:06:50.400Z,27.11
2018-05-23T15:09:18.805Z,27.10
2018-05-23T15:11:46.501Z,27.14
2018-05-23T15:14:14.584Z,27.13
2018-05-23T15:16:42.683Z,27.03
2018-05-23T15:19:10.234Z,27.06
2018-05-23T15:21:37.875Z,27.19
2018-05-23T15:24:06.259Z,27.44
2018-05-23T15:26:34.588Z,27.85
2018-05-23T15:29:02.923Z,28.28
2018-05-23T15:31:31.196Z,28.80
2018-05-23T15:33:58.698Z,29.37
2018-05-23T15:36:26.241Z,29.91
2018-05-23T15:38:53.824Z,30.23
2018-05-23T15:41:21.771Z,30.58
2018-05-23T15:43:51.351Z,30.93
2018-05-23T15:46:18.912Z,31.16
2018-05-23T15:48:46.508Z,31.59
2018-05-23T15:51:15.055Z,32.25
2018-05-23T15:53:43.173Z,32.48
2018-05-23T15:56:11.519Z,32.53
2018-05-23T15:58:39.055Z,32.68
2018-05-23T16:01:06.617Z,32.75
2018-05-23T16:06:28.512Z,33.22
2018-05-23T16:11:49.098Z,32.93
2018-05-23T16:14:16.680Z,32.97
2018-05-23T16:16:44.231Z,32.90
2018-05-23T16:19:12.690Z,33.03
2018-05-23T16:21:40.685Z,33.22
2018-05-23T16:27:02.587Z,33.12
2018-05-23T16:29:30.157Z,33.31
2018-05-23T16:31:58.981Z,32.97
2018-05-23T16:34:26.587Z,32.85
2018-05-23T16:36:54.276Z,32.86
2018-05-23T16:39:22.488Z,32.90
2018-05-23T16:41:50.354Z,32.91
2018-05-23T16:44:17.939Z,33.07
2018-05-23T16:46:45.787Z,33.23
2018-05-23T16:49:14.178Z,33.16
2018-05-23T16:51:41.742Z,32.81
2018-05-23T16:54:09.276Z,32.50
2018-05-23T16:56:37.015Z,32.42
2018-05-23T16:59:05.013Z,32.34
2018-05-23T17:01:32.566Z,32.21
2018-05-23T17:04:00.119Z,31.95
2018-05-23T17:06:28.232Z,31.81
2018-05-23T17:08:56.328Z,31.96
2018-05-23T17:11:25.322Z,32.12
2018-05-23T17:13:53.770Z,32.41
2018-05-23T17:16:23.274Z,32.40
2018-05-23T17:18:51.109Z,32.41
2018-05-23T17:21:19.064Z,32.32
2018-05-23T17:23:46.879Z,31.97
2018-05-23T17:26:14.437Z,31.73
2018-05-23T17:28:42.002Z,31.65
2018-05-23T17:31:10.216Z,31.43
2018-05-23T17:33:37.760Z,31.13
2018-05-23T17:36:05.342Z,31.00
2018-05-23T17:38:33.261Z,30.88
2018-05-23T17:41:01.360Z,30.80
2018-05-23T17:43:29.052Z,30.70
2018-05-23T17:45:57.193Z,30.77
2018-05-23T17:48:25.351Z,30.70
2018-05-23T17:50:52.962Z,30.42
2018-05-23T17:53:20.530Z,30.39
2018-05-23T17:55:48.104Z,30.40
2018-05-23T17:58:16.686Z,30.49
2018-05-23T18:00:44.820Z,30.42
2018-05-23T18:03:12.365Z,30.30
2018-05-23T18:05:40.407Z,30.11
2018-05-23T18:08:08.715Z,29.88
2018-05-23T18:10:36.591Z,29.68
2018-05-23T18:13:04.808Z,29.42
2018-05-23T18:15:32.723Z,29.37
2018-05-23T18:18:01.071Z,29.36
2018-05-23T18:20:29.470Z,29.20
2018-05-23T18:22:56.976Z,29.01
2018-05-23T18:25:25.398Z,28.83
2018-05-23T18:27:53.203Z,28.46
2018-05-23T18:30:20.854Z,27.92
2018-05-23T18:32:49.232Z,27.42
2018-05-23T18:35:17.860Z,26.96
2018-05-23T18:37:46.038Z,26.60
2018-05-23T18:40:14.115Z,26.23
2018-05-23T18:42:41.659Z,25.93
2018-05-23T18:45:09.206Z,25.65
2018-05-23T18:47:37.349Z,25.33
2018-05-23T18:50:04.911Z,25.03
2018-05-23T18:52:32.451Z,24.83
2018-05-23T18:55:00.031Z,24.59
2018-05-23T18:57:28.091Z,24.41
2018-05-23T18:59:55.678Z,24.19
2018-05-23T19:02:24.434Z,23.98
2018-05-23T19:04:52.717Z,23.82
2018-05-23T19:07:21.660Z,23.67
2018-05-23T19:09:49.698Z,23.52
2018-05-23T19:12:18.206Z,23.36
2018-05-23T19:14:46.891Z,23.24
2018-05-23T19:17:14.559Z,23.14
2018-05-23T19:19:42.675Z,23.01
2018-05-23T19:22:10.125Z,22.88
2018-05-23T19:24:37.663Z,22.78
2018-05-23T19:27:05.270Z,22.67
2018-05-23T19:29:32.832Z,22.60
2018-05-23T19:32:01.136Z,22.48
2018-05-23T19:34:28.675Z,22.39
2018-05-23T19:36:56.843Z,22.29
2018-05-23T19:39:25.058Z,22.18
2018-05-23T19:41:52.619Z,22.08
2018-05-23T19:44:20.329Z,21.99
2018-05-23T19:46:47.985Z,21.88
2018-05-23T19:49:15.534Z,21.80
2018-05-23T19:51:44.775Z,21.71
2018-05-23T19:54:12.450Z,21.62
2018-05-23T19:56:40.107Z,21.54
2018-05-23T19:59:07.582Z,21.48
2018-05-23T20:01:35.176Z,21.39
2018-05-23T20:04:02.712Z,21.28
2018-05-23T20:06:31.411Z,21.19
2018-05-23T20:09:00.695Z,21.12
2018-05-23T20:11:29.039Z,21.04
2018-05-23T20:13:57.230Z,20.96
2018-05-23T20:16:25.575Z,20.86
2018-05-23T20:18:53.337Z,20.75
2018-05-23T20:21:21.579Z,20.66
2018-05-23T20:23:50.113Z,20.59
2018-05-23T20:26:17.805Z,20.50
2018-05-23T20:28:45.567Z,20.44
2018-05-23T20:31:14.012Z,20.35
2018-05-23T20:33:41.564Z,20.29
2018-05-23T20:36:10.779Z,20.22
2018-05-23T20:38:39.228Z,20.16
2018-05-23T20:41:07.836Z,20.09
2018-05-23T20:43:36.101Z,20.02
2018-05-23T20:46:03.635Z,19.98
2018-05-23T20:48:31.187Z,19.93
2018-05-23T20:50:58.794Z,19.84
2018-05-23T20:53:26.333Z,19.75
2018-05-23T20:55:54.531Z,19.67
2018-05-23T20:58:22.076Z,19.63
2018-05-23T21:00:49.653Z,19.57
2018-05-23T21:03:17.473Z,19.51
2018-05-23T21:05:46.348Z,19.42
2018-05-23T21:08:14.473Z,19.33
2018-05-23T21:10:43.347Z,19.26
2018-05-23T21:13:11.411Z,19.21
2018-05-23T21:15:39.728Z,19.14
2018-05-23T21:18:07.235Z,19.09
2018-05-23T21:20:36.080Z,19.03
2018-05-23T21:23:03.596Z,18.97
2018-05-23T21:25:31.112Z,18.92
2018-05-23T21:27:59.635Z,18.89
2018-05-23T21:30:27.159Z,18.86
2018-05-23T21:32:54.797Z,18.81
2018-05-23T21:35:23.417Z,18.70
2018-05-23T21:37:50.936Z,18.61
2018-05-23T21:40:19.522Z,18.52
2018-05-23T21:42:48.743Z,18.43
2018-05-23T21:45:16.860Z,18.39
2018-05-23T21:47:44.468Z,18.33
2018-05-23T21:50:12.047Z,18.28
2018-05-23T21:52:39.591Z,18.24
2018-05-23T21:55:07.139Z,18.16
2018-05-23T21:57:34.826Z,18.11
2018-05-23T22:00:03.712Z,18.05
2018-05-23T22:02:31.238Z,18.01
2018-05-23T22:04:59.574Z,17.95
2018-05-23T22:07:27.996Z,17.91
2018-05-23T22:09:56.019Z,17.83
2018-05-23T22:12:23.699Z,17.77
2018-05-23T22:14:51.601Z,17.71
2018-05-23T22:17:19.131Z,17.67
2018-05-23T22:19:48.005Z,17.61
2018-05-23T22:22:15.918Z,17.49
2018-05-23T22:24:44.512Z,17.40
2018-05-23T22:27:12.715Z,17.36
2018-05-23T22:29:40.391Z,17.31
2018-05-23T22:32:08.412Z,17.24
2018-05-23T22:34:35.947Z,17.19
2018-05-23T22:37:04.178Z,17.17
2018-05-23T22:39:32.213Z,17.13
2018-05-23T22:41:59.830Z,17.11
2018-05-23T22:44:28.156Z,17.09
2018-05-23T22:46:56.259Z,17.03
2018-05-23T22:49:23.886Z,16.97
2018-05-23T22:51:51.443Z,16.92
2018-05-23T22:54:19.024Z,16.86
2018-05-23T22:56:46.773Z,16.80
2018-05-23T22:59:14.351Z,16.74
2018-05-23T23:01:41.935Z,16.69
2018-05-23T23:04:10.219Z,16.68
2018-05-23T23:06:38.383Z,16.65
2018-05-23T23:09:10.116Z,16.60
2018-05-23T23:11:38.148Z,16.58
2018-05-23T23:14:06.213Z,16.55
2018-05-23T23:16:34.142Z,16.49
2018-05-23T23:19:02.329Z,16.44
2018-05-23T23:21:30.835Z,16.40
2018-05-23T23:23:59.069Z,16.37
2018-05-23T23:26:26.612Z,16.32
2018-05-23T23:28:54.154Z,16.29
2018-05-23T23:31:21.760Z,16.23
2018-05-23T23:33:49.291Z,16.20
2018-05-23T23:36:17.981Z,16.16
2018-05-23T23:38:45.621Z,16.14
2018-05-23T23:41:13.714Z,16.11
2018-05-23T23:43:41.655Z,16.09
2018-05-23T23:46:09.219Z,16.02
2018-05-23T23:48:36.779Z,15.99
2018-05-23T23:51:05.105Z,15.95
2018-05-23T23:53:32.670Z,15.90
2018-05-23T23:56:00.236Z,15.84
2018-05-23T23:58:27.832Z,15.78
